sensor_id;sensor_type;location;lat;lon;timestamp;P1;durP1;ratioP1;P2;durP2;ratioP2
71769;SDS011;66386;52.122;5.420;2023-03-01T00:00:39;10.57;;;5.90;;
71769;SDS011;66386;52.122;5.420;2023-03-01T00:03:06;7.80;;;4.78;;
71769;SDS011;66386;52.122;5.420;2023-03-01T00:05:33;10.13;;;5.50;;
71769;SDS011;66386;52.122;5.420;2023-03-01T00:07:59;10.93;;;5.57;;
71769;SDS011;66386;52.122;5.420;2023-03-01T00:10:25;9.07;;;5.93;;
71769;SDS011;66386;52.122;5.420;2023-03-01T00:12:52;10.83;;;5.90;;
71769;SDS011;66386;52.122;5.420;2023-03-01T00:15:19;9.70;;;5.82;;
71769;SDS011;66386;52.122;5.420;2023-03-01T00:17:45;14.93;;;6.78;;
71769;SDS011;66386;52.122;5.420;2023-03-01T00:20:12;12.00;;;6.45;;
71769;SDS011;66386;52.122;5.420;2023-03-01T00:22:38;11.05;;;6.40;;
71769;SDS011;66386;52.122;5.420;2023-03-01T00:25:05;11.20;;;6.37;;
71769;SDS011;66386;52.122;5.420;2023-03-01T00:27:31;9.07;;;6.35;;
71769;SDS011;66386;52.122;5.420;2023-03-01T00:29:58;9.90;;;6.18;;
71769;SDS011;66386;52.122;5.420;2023-03-01T00:32:24;12.05;;;6.70;;
71769;SDS011;66386;52.122;5.420;2023-03-01T00:34:51;12.80;;;6.60;;
71769;SDS011;66386;52.122;5.420;2023-03-01T00:37:23;8.53;;;5.80;;
71769;SDS011;66386;52.122;5.420;2023-03-01T00:39:50;11.25;;;6.57;;
71769;SDS011;66386;52.122;5.420;2023-03-01T00:42:20;10.32;;;6.72;;
71769;SDS011;66386;52.122;5.420;2023-03-01T00:44:46;11.52;;;6.40;;
71769;SDS011;66386;52.122;5.420;2023-03-01T00:47:12;12.68;;;6.43;;
71769;SDS011;66386;52.122;5.420;2023-03-01T00:49:40;11.17;;;6.97;;
71769;SDS011;66386;52.122;5.420;2023-03-01T00:52:06;14.13;;;6.45;;
71769;SDS011;66386;52.122;5.420;2023-03-01T00:54:34;12.32;;;7.22;;
71769;SDS011;66386;52.122;5.420;2023-03-01T00:57:00;10.45;;;6.63;;
71769;SDS011;66386;52.122;5.420;2023-03-01T00:59:26;12.38;;;6.35;;
71769;SDS011;66386;52.122;5.420;2023-03-01T01:01:53;9.77;;;6.93;;
71769;SDS011;66386;52.122;5.420;2023-03-01T01:04:19;10.93;;;6.05;;
71769;SDS011;66386;52.122;5.420;2023-03-01T01:06:46;14.52;;;7.05;;
71769;SDS011;66386;52.122;5.420;2023-03-01T01:09:14;9.15;;;6.35;;
71769;SDS011;66386;52.122;5.420;2023-03-01T01:11:46;12.25;;;7.43;;
71769;SDS011;66386;52.122;5.420;2023-03-01T01:14:14;10.80;;;6.20;;
71769;SDS011;66386;52.122;5.420;2023-03-01T01:16:41;11.80;;;6.45;;
71769;SDS011;66386;52.122;5.420;2023-03-01T01:19:08;11.77;;;6.65;;
71769;SDS011;66386;52.122;5.420;2023-03-01T01:21:35;12.05;;;7.05;;
71769;SDS011;66386;52.122;5.420;2023-03-01T01:24:03;12.40;;;6.60;;
71769;SDS011;66386;52.122;5.420;2023-03-01T01:26:32;12.27;;;5.90;;
71769;SDS011;66386;52.122;5.420;2023-03-01T01:29:00;12.75;;;6.47;;
71769;SDS011;66386;52.122;5.420;2023-03-01T01:31:28;12.10;;;6.03;;
71769;SDS011;66386;52.122;5.420;2023-03-01T01:33:56;10.35;;;6.25;;
71769;SDS011;66386;52.122;5.420;2023-03-01T01:36:23;10.35;;;6.47;;
71769;SDS011;66386;52.122;5.420;2023-03-01T01:38:50;8.90;;;5.60;;
71769;SDS011;66386;52.122;5.420;2023-03-01T01:41:17;10.52;;;6.13;;
71769;SDS011;66386;52.122;5.420;2023-03-01T01:43:46;13.55;;;6.40;;
71769;SDS011;66386;52.122;5.420;2023-03-01T01:49:07;10.15;;;6.47;;
71769;SDS011;66386;52.122;5.420;2023-03-01T01:51:45;10.10;;;5.87;;
71769;SDS011;66386;52.122;5.420;2023-03-01T01:54:22;10.85;;;5.65;;
71769;SDS011;66386;52.122;5.420;2023-03-01T01:56:58;11.00;;;6.40;;
71769;SDS011;66386;52.122;5.420;2023-03-01T01:59:30;9.50;;;5.63;;
71769;SDS011;66386;52.122;5.420;2023-03-01T02:01:59;15.40;;;7.05;;
71769;SDS011;66386;52.122;5.420;2023-03-01T02:04:29;10.73;;;6.80;;
71769;SDS011;66386;52.122;5.420;2023-03-01T02:07:17;17.02;;;5.82;;
71769;SDS011;66386;52.122;5.420;2023-03-01T02:09:48;10.73;;;6.15;;
71769;SDS011;66386;52.122;5.420;2023-03-01T02:12:19;13.68;;;6.38;;
71769;SDS011;66386;52.122;5.420;2023-03-01T02:14:49;13.52;;;6.38;;
71769;SDS011;66386;52.122;5.420;2023-03-01T02:17:16;8.97;;;5.63;;
71769;SDS011;66386;52.122;5.420;2023-03-01T02:19:51;14.70;;;7.18;;
71769;SDS011;66386;52.122;5.420;2023-03-01T02:22:30;11.38;;;6.57;;
71769;SDS011;66386;52.122;5.420;2023-03-01T02:25:04;10.65;;;5.68;;
71769;SDS011;66386;52.122;5.420;2023-03-01T02:27:50;10.95;;;6.15;;
71769;SDS011;66386;52.122;5.420;2023-03-01T02:30:36;12.90;;;7.27;;
71769;SDS011;66386;52.122;5.420;2023-03-01T02:33:03;11.50;;;6.20;;
71769;SDS011;66386;52.122;5.420;2023-03-01T02:35:31;9.05;;;6.35;;
71769;SDS011;66386;52.122;5.420;2023-03-01T02:38:01;13.85;;;6.50;;
71769;SDS011;66386;52.122;5.420;2023-03-01T02:40:29;11.98;;;6.60;;
71769;SDS011;66386;52.122;5.420;2023-03-01T02:42:57;10.73;;;6.53;;
71769;SDS011;66386;52.122;5.420;2023-03-01T02:45:25;11.10;;;6.65;;
71769;SDS011;66386;52.122;5.420;2023-03-01T02:47:53;13.70;;;6.55;;
71769;SDS011;66386;52.122;5.420;2023-03-01T02:53:16;13.10;;;6.45;;
71769;SDS011;66386;52.122;5.420;2023-03-01T02:55:47;11.27;;;6.50;;
71769;SDS011;66386;52.122;5.420;2023-03-01T02:58:14;10.35;;;6.07;;
71769;SDS011;66386;52.122;5.420;2023-03-01T03:00:42;11.73;;;6.15;;
71769;SDS011;66386;52.122;5.420;2023-03-01T03:03:15;9.95;;;5.35;;
71769;SDS011;66386;52.122;5.420;2023-03-01T03:05:45;17.55;;;7.07;;
71769;SDS011;66386;52.122;5.420;2023-03-01T03:08:11;9.97;;;6.00;;
71769;SDS011;66386;52.122;5.420;2023-03-01T03:10:39;12.10;;;6.15;;
71769;SDS011;66386;52.122;5.420;2023-03-01T03:13:10;8.55;;;6.18;;
71769;SDS011;66386;52.122;5.420;2023-03-01T03:15:40;8.55;;;5.75;;
71769;SDS011;66386;52.122;5.420;2023-03-01T03:18:15;11.20;;;7.20;;
71769;SDS011;66386;52.122;5.420;2023-03-01T03:20:43;14.87;;;7.53;;
71769;SDS011;66386;52.122;5.420;2023-03-01T03:23:10;12.77;;;7.30;;
71769;SDS011;66386;52.122;5.420;2023-03-01T03:25:38;13.52;;;7.32;;
71769;SDS011;66386;52.122;5.420;2023-03-01T03:28:05;13.10;;;6.72;;
71769;SDS011;66386;52.122;5.420;2023-03-01T03:30:37;11.00;;;6.70;;
71769;SDS011;66386;52.122;5.420;2023-03-01T03:33:05;14.30;;;6.67;;
71769;SDS011;66386;52.122;5.420;2023-03-01T03:35:34;14.40;;;7.18;;
71769;SDS011;66386;52.122;5.420;2023-03-01T03:38:05;11.00;;;6.95;;
71769;SDS011;66386;52.122;5.420;2023-03-01T03:40:42;10.63;;;7.00;;
71769;SDS011;66386;52.122;5.420;2023-03-01T03:43:15;10.85;;;6.82;;
71769;SDS011;66386;52.122;5.420;2023-03-01T03:45:43;13.00;;;6.93;;
71769;SDS011;66386;52.122;5.420;2023-03-01T03:48:14;13.77;;;6.55;;
71769;SDS011;66386;52.122;5.420;2023-03-01T03:50:41;13.60;;;6.47;;
71769;SDS011;66386;52.122;5.420;2023-03-01T03:53:12;12.88;;;7.57;;
71769;SDS011;66386;52.122;5.420;2023-03-01T03:55:39;12.52;;;6.28;;
71769;SDS011;66386;52.122;5.420;2023-03-01T03:58:06;14.17;;;7.13;;
71769;SDS011;66386;52.122;5.420;2023-03-01T04:00:43;11.02;;;6.32;;
71769;SDS011;66386;52.122;5.420;2023-03-01T04:03:11;12.32;;;7.55;;
71769;SDS011;66386;52.122;5.420;2023-03-01T04:05:39;14.80;;;7.72;;
71769;SDS011;66386;52.122;5.420;2023-03-01T04:08:07;13.70;;;7.03;;
71769;SDS011;66386;52.122;5.420;2023-03-01T04:10:38;14.20;;;7.63;;
71769;SDS011;66386;52.122;5.420;2023-03-01T04:13:07;12.07;;;7.10;;
71769;SDS011;66386;52.122;5.420;2023-03-01T04:15:36;13.52;;;7.68;;
71769;SDS011;66386;52.122;5.420;2023-03-01T04:18:03;12.77;;;6.90;;
71769;SDS011;66386;52.122;5.420;2023-03-01T04:20:31;13.82;;;6.90;;
71769;SDS011;66386;52.122;5.420;2023-03-01T04:23:07;10.67;;;6.63;;
71769;SDS011;66386;52.122;5.420;2023-03-01T04:25:44;11.02;;;6.38;;
71769;SDS011;66386;52.122;5.420;2023-03-01T04:28:27;9.93;;;5.80;;
71769;SDS011;66386;52.122;5.420;2023-03-01T04:30:55;10.10;;;5.85;;
71769;SDS011;66386;52.122;5.420;2023-03-01T04:33:23;9.32;;;6.32;;
71769;SDS011;66386;52.122;5.420;2023-03-01T04:35:51;10.00;;;6.37;;
71769;SDS011;66386;52.122;5.420;2023-03-01T04:38:18;10.40;;;6.82;;
71769;SDS011;66386;52.122;5.420;2023-03-01T04:40:46;12.63;;;5.88;;
71769;SDS011;66386;52.122;5.420;2023-03-01T04:43:12;9.52;;;5.93;;
71769;SDS011;66386;52.122;5.420;2023-03-01T04:45:40;13.15;;;7.10;;
71769;SDS011;66386;52.122;5.420;2023-03-01T04:48:07;9.67;;;6.03;;
71769;SDS011;66386;52.122;5.420;2023-03-01T04:50:34;8.77;;;5.30;;
71769;SDS011;66386;52.122;5.420;2023-03-01T04:53:00;9.27;;;6.00;;
71769;SDS011;66386;52.122;5.420;2023-03-01T04:55:27;7.75;;;5.28;;
71769;SDS011;66386;52.122;5.420;2023-03-01T04:57:54;11.10;;;6.32;;
71769;SDS011;66386;52.122;5.420;2023-03-01T05:00:21;9.00;;;6.13;;
71769;SDS011;66386;52.122;5.420;2023-03-01T05:02:49;8.50;;;4.97;;
71769;SDS011;66386;52.122;5.420;2023-03-01T05:05:27;7.93;;;4.60;;
71769;SDS011;66386;52.122;5.420;2023-03-01T05:07:57;10.40;;;4.97;;
71769;SDS011;66386;52.122;5.420;2023-03-01T05:10:27;8.52;;;4.95;;
71769;SDS011;66386;52.122;5.420;2023-03-01T05:12:55;8.43;;;4.93;;
71769;SDS011;66386;52.122;5.420;2023-03-01T05:15:23;9.07;;;5.03;;
71769;SDS011;66386;52.122;5.420;2023-03-01T05:17:54;13.65;;;5.88;;
71769;SDS011;66386;52.122;5.420;2023-03-01T05:20:30;9.60;;;5.68;;
71769;SDS011;66386;52.122;5.420;2023-03-01T05:22:58;14.70;;;5.65;;
71769;SDS011;66386;52.122;5.420;2023-03-01T05:25:26;8.30;;;5.77;;
71769;SDS011;66386;52.122;5.420;2023-03-01T05:27:53;10.00;;;5.55;;
71769;SDS011;66386;52.122;5.420;2023-03-01T05:30:19;10.00;;;5.75;;
71769;SDS011;66386;52.122;5.420;2023-03-01T05:32:47;10.98;;;5.75;;
71769;SDS011;66386;52.122;5.420;2023-03-01T05:35:16;5.90;;;5.30;;
71769;SDS011;66386;52.122;5.420;2023-03-01T05:37:44;7.87;;;5.23;;
71769;SDS011;66386;52.122;5.420;2023-03-01T05:40:14;9.10;;;5.40;;
71769;SDS011;66386;52.122;5.420;2023-03-01T05:42:44;9.75;;;5.53;;
71769;SDS011;66386;52.122;5.420;2023-03-01T05:45:12;10.05;;;5.63;;
71769;SDS011;66386;52.122;5.420;2023-03-01T05:47:39;6.85;;;5.18;;
71769;SDS011;66386;52.122;5.420;2023-03-01T05:50:11;8.23;;;5.67;;
71769;SDS011;66386;52.122;5.420;2023-03-01T05:52:39;8.55;;;5.57;;
71769;SDS011;66386;52.122;5.420;2023-03-01T05:55:06;8.95;;;5.50;;
71769;SDS011;66386;52.122;5.420;2023-03-01T05:57:33;11.35;;;5.88;;
71769;SDS011;66386;52.122;5.420;2023-03-01T05:59:59;8.77;;;5.93;;
71769;SDS011;66386;52.122;5.420;2023-03-01T06:02:25;10.23;;;5.73;;
71769;SDS011;66386;52.122;5.420;2023-03-01T06:04:53;9.38;;;5.55;;
71769;SDS011;66386;52.122;5.420;2023-03-01T06:07:19;11.52;;;5.68;;
71769;SDS011;66386;52.122;5.420;2023-03-01T06:09:46;8.68;;;5.68;;
71769;SDS011;66386;52.122;5.420;2023-03-01T06:12:12;13.85;;;5.53;;
71769;SDS011;66386;52.122;5.420;2023-03-01T06:14:39;17.40;;;6.33;;
71769;SDS011;66386;52.122;5.420;2023-03-01T06:17:05;11.75;;;6.30;;
71769;SDS011;66386;52.122;5.420;2023-03-01T06:19:32;10.32;;;5.78;;
71769;SDS011;66386;52.122;5.420;2023-03-01T06:21:58;13.05;;;6.20;;
71769;SDS011;66386;52.122;5.420;2023-03-01T06:24:24;9.02;;;5.55;;
71769;SDS011;66386;52.122;5.420;2023-03-01T06:26:52;8.93;;;6.10;;
71769;SDS011;66386;52.122;5.420;2023-03-01T06:29:19;9.68;;;6.38;;
71769;SDS011;66386;52.122;5.420;2023-03-01T06:31:45;8.98;;;6.35;;
71769;SDS011;66386;52.122;5.420;2023-03-01T06:34:15;8.68;;;6.00;;
71769;SDS011;66386;52.122;5.420;2023-03-01T06:36:41;9.05;;;6.35;;
71769;SDS011;66386;52.122;5.420;2023-03-01T06:39:08;10.80;;;5.70;;
71769;SDS011;66386;52.122;5.420;2023-03-01T06:41:35;11.52;;;6.05;;
71769;SDS011;66386;52.122;5.420;2023-03-01T06:44:01;10.98;;;6.95;;
71769;SDS011;66386;52.122;5.420;2023-03-01T06:46:28;9.13;;;6.43;;
71769;SDS011;66386;52.122;5.420;2023-03-01T06:48:55;10.05;;;6.05;;
71769;SDS011;66386;52.122;5.420;2023-03-01T06:51:22;11.63;;;6.10;;
71769;SDS011;66386;52.122;5.420;2023-03-01T06:53:48;10.15;;;6.53;;
71769;SDS011;66386;52.122;5.420;2023-03-01T06:56:15;8.60;;;5.63;;
71769;SDS011;66386;52.122;5.420;2023-03-01T06:58:41;11.52;;;7.15;;
71769;SDS011;66386;52.122;5.420;2023-03-01T07:01:08;14.15;;;6.50;;
71769;SDS011;66386;52.122;5.420;2023-03-01T07:03:34;10.87;;;7.07;;
71769;SDS011;66386;52.122;5.420;2023-03-01T07:06:01;9.85;;;6.43;;
71769;SDS011;66386;52.122;5.420;2023-03-01T07:08:28;13.00;;;6.80;;
71769;SDS011;66386;52.122;5.420;2023-03-01T07:10:55;12.05;;;6.72;;
71769;SDS011;66386;52.122;5.420;2023-03-01T07:13:22;10.90;;;6.47;;
71769;SDS011;66386;52.122;5.420;2023-03-01T07:15:48;16.40;;;6.87;;
71769;SDS011;66386;52.122;5.420;2023-03-01T07:18:15;12.60;;;6.82;;
71769;SDS011;66386;52.122;5.420;2023-03-01T07:20:41;12.95;;;6.82;;
71769;SDS011;66386;52.122;5.420;2023-03-01T07:23:08;12.65;;;6.97;;
71769;SDS011;66386;52.122;5.420;2023-03-01T07:25:34;10.27;;;6.90;;
71769;SDS011;66386;52.122;5.420;2023-03-01T07:28:01;13.37;;;7.87;;
71769;SDS011;66386;52.122;5.420;2023-03-01T07:30:27;11.40;;;6.40;;
71769;SDS011;66386;52.122;5.420;2023-03-01T07:32:55;16.20;;;7.25;;
71769;SDS011;66386;52.122;5.420;2023-03-01T07:35:23;21.90;;;6.95;;
71769;SDS011;66386;52.122;5.420;2023-03-01T07:37:50;16.05;;;6.85;;
71769;SDS011;66386;52.122;5.420;2023-03-01T07:40:17;12.83;;;7.13;;
71769;SDS011;66386;52.122;5.420;2023-03-01T07:42:44;14.85;;;7.72;;
71769;SDS011;66386;52.122;5.420;2023-03-01T07:45:11;20.77;;;9.07;;
71769;SDS011;66386;52.122;5.420;2023-03-01T07:47:38;19.05;;;9.00;;
71769;SDS011;66386;52.122;5.420;2023-03-01T07:50:05;17.48;;;8.23;;
71769;SDS011;66386;52.122;5.420;2023-03-01T07:52:31;19.43;;;8.57;;
71769;SDS011;66386;52.122;5.420;2023-03-01T07:54:58;20.20;;;9.18;;
71769;SDS011;66386;52.122;5.420;2023-03-01T07:57:24;19.58;;;8.77;;
71769;SDS011;66386;52.122;5.420;2023-03-01T07:59:51;16.45;;;7.95;;
71769;SDS011;66386;52.122;5.420;2023-03-01T08:02:17;15.77;;;8.50;;
71769;SDS011;66386;52.122;5.420;2023-03-01T08:04:44;17.47;;;8.27;;
71769;SDS011;66386;52.122;5.420;2023-03-01T08:07:10;14.93;;;7.80;;
71769;SDS011;66386;52.122;5.420;2023-03-01T08:09:37;17.27;;;7.22;;
71769;SDS011;66386;52.122;5.420;2023-03-01T08:12:04;13.35;;;7.10;;
71769;SDS011;66386;52.122;5.420;2023-03-01T08:14:31;11.00;;;6.70;;
71769;SDS011;66386;52.122;5.420;2023-03-01T08:16:58;9.53;;;6.03;;
71769;SDS011;66386;52.122;5.420;2023-03-01T08:19:25;8.50;;;5.60;;
71769;SDS011;66386;52.122;5.420;2023-03-01T08:21:51;9.00;;;5.90;;
71769;SDS011;66386;52.122;5.420;2023-03-01T08:24:17;8.55;;;5.13;;
71769;SDS011;66386;52.122;5.420;2023-03-01T08:26:44;6.60;;;4.82;;
71769;SDS011;66386;52.122;5.420;2023-03-01T08:29:10;7.60;;;4.93;;
71769;SDS011;66386;52.122;5.420;2023-03-01T08:31:38;9.35;;;5.20;;
71769;SDS011;66386;52.122;5.420;2023-03-01T08:34:10;7.43;;;4.47;;
71769;SDS011;66386;52.122;5.420;2023-03-01T08:36:39;6.85;;;4.35;;
71769;SDS011;66386;52.122;5.420;2023-03-01T08:39:10;8.13;;;4.30;;
71769;SDS011;66386;52.122;5.420;2023-03-01T08:41:39;8.93;;;4.63;;
71769;SDS011;66386;52.122;5.420;2023-03-01T08:44:06;9.90;;;4.72;;
71769;SDS011;66386;52.122;5.420;2023-03-01T08:46:34;7.95;;;5.00;;
71769;SDS011;66386;52.122;5.420;2023-03-01T08:49:04;7.03;;;5.15;;
71769;SDS011;66386;52.122;5.420;2023-03-01T08:51:32;5.60;;;4.57;;
71769;SDS011;66386;52.122;5.420;2023-03-01T08:54:03;7.33;;;5.30;;
71769;SDS011;66386;52.122;5.420;2023-03-01T08:56:31;8.27;;;4.78;;
71769;SDS011;66386;52.122;5.420;2023-03-01T08:58:58;7.80;;;4.43;;
71769;SDS011;66386;52.122;5.420;2023-03-01T09:01:24;8.07;;;4.68;;
71769;SDS011;66386;52.122;5.420;2023-03-01T09:03:51;6.13;;;4.47;;
71769;SDS011;66386;52.122;5.420;2023-03-01T09:06:18;9.27;;;5.20;;
71769;SDS011;66386;52.122;5.420;2023-03-01T09:08:46;7.65;;;5.30;;
71769;SDS011;66386;52.122;5.420;2023-03-01T09:11:14;6.15;;;4.32;;
71769;SDS011;66386;52.122;5.420;2023-03-01T09:13:43;8.00;;;4.00;;
71769;SDS011;66386;52.122;5.420;2023-03-01T09:16:10;5.82;;;4.43;;
71769;SDS011;66386;52.122;5.420;2023-03-01T09:18:37;5.63;;;4.50;;
71769;SDS011;66386;52.122;5.420;2023-03-01T09:21:05;5.60;;;4.30;;
71769;SDS011;66386;52.122;5.420;2023-03-01T09:23:37;5.13;;;4.20;;
71769;SDS011;66386;52.122;5.420;2023-03-01T09:26:06;5.95;;;3.83;;
71769;SDS011;66386;52.122;5.420;2023-03-01T09:28:35;6.88;;;3.83;;
71769;SDS011;66386;52.122;5.420;2023-03-01T09:31:03;6.00;;;3.70;;
71769;SDS011;66386;52.122;5.420;2023-03-01T09:33:31;5.38;;;3.58;;
71769;SDS011;66386;52.122;5.420;2023-03-01T09:38:26;6.32;;;3.78;;
71769;SDS011;66386;52.122;5.420;2023-03-01T09:40:53;5.82;;;3.83;;
71769;SDS011;66386;52.122;5.420;2023-03-01T09:46:14;6.75;;;3.88;;
71769;SDS011;66386;52.122;5.420;2023-03-01T09:48:52;5.30;;;3.45;;
71769;SDS011;66386;52.122;5.420;2023-03-01T09:51:32;4.13;;;2.95;;
71769;SDS011;66386;52.122;5.420;2023-03-01T09:54:01;4.85;;;2.75;;
71769;SDS011;66386;52.122;5.420;2023-03-01T09:56:30;5.33;;;2.70;;
71769;SDS011;66386;52.122;5.420;2023-03-01T10:07:11;4.50;;;2.05;;
71769;SDS011;66386;52.122;5.420;2023-03-01T10:09:51;6.40;;;1.90;;
71769;SDS011;66386;52.122;5.420;2023-03-01T10:12:19;5.00;;;2.17;;
71769;SDS011;66386;52.122;5.420;2023-03-01T10:17:42;2.95;;;2.30;;
71769;SDS011;66386;52.122;5.420;2023-03-01T10:20:17;4.47;;;2.40;;
71769;SDS011;66386;52.122;5.420;2023-03-01T10:23:04;3.03;;;2.00;;
71769;SDS011;66386;52.122;5.420;2023-03-01T10:28:17;3.97;;;2.00;;
71769;SDS011;66386;52.122;5.420;2023-03-01T10:30:51;4.65;;;2.92;;
71769;SDS011;66386;52.122;5.420;2023-03-01T10:33:23;4.07;;;2.60;;
71769;SDS011;66386;52.122;5.420;2023-03-01T10:35:52;3.73;;;2.50;;
71769;SDS011;66386;52.122;5.420;2023-03-01T10:38:19;8.35;;;2.03;;
71769;SDS011;66386;52.122;5.420;2023-03-01T10:40:51;3.22;;;1.90;;
71769;SDS011;66386;52.122;5.420;2023-03-01T10:43:26;3.65;;;2.20;;
71769;SDS011;66386;52.122;5.420;2023-03-01T10:45:58;2.90;;;1.95;;
71769;SDS011;66386;52.122;5.420;2023-03-01T10:48:25;5.37;;;1.17;;
71769;SDS011;66386;52.122;5.420;2023-03-01T10:55:56;2.17;;;1.30;;
71769;SDS011;66386;52.122;5.420;2023-03-01T10:58:32;1.88;;;0.85;;
71769;SDS011;66386;52.122;5.420;2023-03-01T11:03:33;3.03;;;1.42;;
71769;SDS011;66386;52.122;5.420;2023-03-01T11:06:05;3.13;;;1.40;;
71769;SDS011;66386;52.122;5.420;2023-03-01T11:08:48;1.95;;;1.15;;
71769;SDS011;66386;52.122;5.420;2023-03-01T11:16:59;2.70;;;1.40;;
71769;SDS011;66386;52.122;5.420;2023-03-01T11:19:30;3.22;;;1.40;;
71769;SDS011;66386;52.122;5.420;2023-03-01T11:24:47;3.10;;;1.33;;
71769;SDS011;66386;52.122;5.420;2023-03-01T11:27:35;3.37;;;1.40;;
71769;SDS011;66386;52.122;5.420;2023-03-01T11:30:09;3.47;;;1.08;;
71769;SDS011;66386;52.122;5.420;2023-03-01T11:32:48;2.50;;;1.00;;
71769;SDS011;66386;52.122;5.420;2023-03-01T11:35:26;1.98;;;1.20;;
71769;SDS011;66386;52.122;5.420;2023-03-01T11:37:57;2.42;;;1.33;;
71769;SDS011;66386;52.122;5.420;2023-03-01T11:40:33;2.07;;;1.00;;
71769;SDS011;66386;52.122;5.420;2023-03-01T11:43:20;3.10;;;1.17;;
71769;SDS011;66386;52.122;5.420;2023-03-01T11:48:32;1.90;;;1.00;;
71769;SDS011;66386;52.122;5.420;2023-03-01T11:51:18;4.00;;;1.40;;
71769;SDS011;66386;52.122;5.420;2023-03-01T11:54:13;2.10;;;1.40;;
71769;SDS011;66386;52.122;5.420;2023-03-01T11:56:57;3.13;;;1.77;;
71769;SDS011;66386;52.122;5.420;2023-03-01T11:59:35;1.83;;;1.13;;
71769;SDS011;66386;52.122;5.420;2023-03-01T12:10:28;5.15;;;3.05;;
71769;SDS011;66386;52.122;5.420;2023-03-01T12:18:37;2.08;;;1.60;;
71769;SDS011;66386;52.122;5.420;2023-03-01T12:27:07;3.17;;;1.48;;
71769;SDS011;66386;52.122;5.420;2023-03-01T12:29:59;3.65;;;2.10;;
71769;SDS011;66386;52.122;5.420;2023-03-01T12:32:51;2.78;;;1.70;;
71769;SDS011;66386;52.122;5.420;2023-03-01T12:35:36;2.37;;;1.73;;
71769;SDS011;66386;52.122;5.420;2023-03-01T12:38:24;2.50;;;1.60;;
71769;SDS011;66386;52.122;5.420;2023-03-01T12:44:21;2.67;;;1.52;;
71769;SDS011;66386;52.122;5.420;2023-03-01T12:50:17;3.47;;;1.63;;
71769;SDS011;66386;52.122;5.420;2023-03-01T12:52:51;3.85;;;2.03;;
71769;SDS011;66386;52.122;5.420;2023-03-01T12:58:18;2.17;;;1.55;;
71769;SDS011;66386;52.122;5.420;2023-03-01T13:09:37;3.17;;;1.60;;
71769;SDS011;66386;52.122;5.420;2023-03-01T13:15:28;3.00;;;1.67;;
71769;SDS011;66386;52.122;5.420;2023-03-01T13:17:57;2.43;;;1.57;;
71769;SDS011;66386;52.122;5.420;2023-03-01T13:20:45;3.00;;;1.90;;
71769;SDS011;66386;52.122;5.420;2023-03-01T13:23:12;2.53;;;1.77;;
71769;SDS011;66386;52.122;5.420;2023-03-01T13:31:11;2.90;;;1.90;;
71769;SDS011;66386;52.122;5.420;2023-03-01T13:34:00;3.95;;;1.70;;
71769;SDS011;66386;52.122;5.420;2023-03-01T13:39:03;4.38;;;1.63;;
71769;SDS011;66386;52.122;5.420;2023-03-01T13:41:52;2.75;;;1.70;;
71769;SDS011;66386;52.122;5.420;2023-03-01T13:44:23;3.10;;;1.90;;
71769;SDS011;66386;52.122;5.420;2023-03-01T13:49:29;2.53;;;1.55;;
71769;SDS011;66386;52.122;5.420;2023-03-01T13:57:39;5.50;;;1.90;;
71769;SDS011;66386;52.122;5.420;2023-03-01T14:00:24;3.90;;;1.90;;
71769;SDS011;66386;52.122;5.420;2023-03-01T14:03:03;3.88;;;1.52;;
71769;SDS011;66386;52.122;5.420;2023-03-01T14:05:41;4.38;;;1.60;;
71769;SDS011;66386;52.122;5.420;2023-03-01T14:08:38;5.32;;;1.50;;
71769;SDS011;66386;52.122;5.420;2023-03-01T14:14:12;3.50;;;1.60;;
71769;SDS011;66386;52.122;5.420;2023-03-01T14:20:01;2.60;;;1.50;;
71769;SDS011;66386;52.122;5.420;2023-03-01T14:22:35;5.50;;;1.90;;
71769;SDS011;66386;52.122;5.420;2023-03-01T14:25:05;4.00;;;1.70;;
71769;SDS011;66386;52.122;5.420;2023-03-01T14:27:43;2.80;;;1.75;;
71769;SDS011;66386;52.122;5.420;2023-03-01T14:30:20;4.28;;;2.08;;
71769;SDS011;66386;52.122;5.420;2023-03-01T14:32:57;2.67;;;1.67;;
71769;SDS011;66386;52.122;5.420;2023-03-01T14:35:26;3.25;;;1.67;;
71769;SDS011;66386;52.122;5.420;2023-03-01T14:37:55;4.07;;;1.60;;
71769;SDS011;66386;52.122;5.420;2023-03-01T14:40:23;4.65;;;2.15;;
71769;SDS011;66386;52.122;5.420;2023-03-01T14:42:56;4.60;;;2.10;;
71769;SDS011;66386;52.122;5.420;2023-03-01T14:45:25;3.42;;;2.00;;
71769;SDS011;66386;52.122;5.420;2023-03-01T14:47:54;4.45;;;1.73;;
71769;SDS011;66386;52.122;5.420;2023-03-01T14:50:26;2.83;;;2.30;;
71769;SDS011;66386;52.122;5.420;2023-03-01T14:52:55;3.45;;;1.95;;
71769;SDS011;66386;52.122;5.420;2023-03-01T14:55:38;4.05;;;2.25;;
71769;SDS011;66386;52.122;5.420;2023-03-01T14:58:14;6.38;;;2.50;;
71769;SDS011;66386;52.122;5.420;2023-03-01T15:00:54;2.67;;;1.70;;
71769;SDS011;66386;52.122;5.420;2023-03-01T15:03:33;4.73;;;2.00;;
71769;SDS011;66386;52.122;5.420;2023-03-01T15:06:03;2.95;;;1.73;;
71769;SDS011;66386;52.122;5.420;2023-03-01T15:08:31;3.17;;;1.73;;
71769;SDS011;66386;52.122;5.420;2023-03-01T15:13:34;4.07;;;1.92;;
71769;SDS011;66386;52.122;5.420;2023-03-01T15:16:05;2.93;;;1.57;;
71769;SDS011;66386;52.122;5.420;2023-03-01T15:18:33;2.70;;;1.73;;
71769;SDS011;66386;52.122;5.420;2023-03-01T15:21:34;3.60;;;1.85;;
71769;SDS011;66386;52.122;5.420;2023-03-01T15:26:40;2.67;;;1.50;;
71769;SDS011;66386;52.122;5.420;2023-03-01T15:29:15;3.50;;;1.93;;
71769;SDS011;66386;52.122;5.420;2023-03-01T15:31:53;3.38;;;1.90;;
71769;SDS011;66386;52.122;5.420;2023-03-01T15:36:50;3.55;;;1.70;;
71769;SDS011;66386;52.122;5.420;2023-03-01T15:42:04;3.77;;;1.97;;
71769;SDS011;66386;52.122;5.420;2023-03-01T15:44:39;4.45;;;1.85;;
71769;SDS011;66386;52.122;5.420;2023-03-01T15:47:28;2.50;;;1.80;;
71769;SDS011;66386;52.122;5.420;2023-03-01T15:49:56;3.70;;;1.88;;
71769;SDS011;66386;52.122;5.420;2023-03-01T15:52:26;2.80;;;2.03;;
71769;SDS011;66386;52.122;5.420;2023-03-01T15:55:19;3.47;;;1.90;;
71769;SDS011;66386;52.122;5.420;2023-03-01T15:57:50;2.88;;;1.92;;
71769;SDS011;66386;52.122;5.420;2023-03-01T16:00:26;2.80;;;1.80;;
71769;SDS011;66386;52.122;5.420;2023-03-01T16:02:54;3.53;;;2.10;;
71769;SDS011;66386;52.122;5.420;2023-03-01T16:05:22;3.38;;;1.98;;
71769;SDS011;66386;52.122;5.420;2023-03-01T16:07:51;4.03;;;2.30;;
71769;SDS011;66386;52.122;5.420;2023-03-01T16:10:18;6.30;;;2.30;;
71769;SDS011;66386;52.122;5.420;2023-03-01T16:12:45;3.67;;;2.30;;
71769;SDS011;66386;52.122;5.420;2023-03-01T16:15:18;3.83;;;2.08;;
71769;SDS011;66386;52.122;5.420;2023-03-01T16:18:10;4.35;;;2.35;;
71769;SDS011;66386;52.122;5.420;2023-03-01T16:20:38;6.60;;;2.47;;
71769;SDS011;66386;52.122;5.420;2023-03-01T16:23:06;3.53;;;2.30;;
71769;SDS011;66386;52.122;5.420;2023-03-01T16:25:33;2.80;;;1.98;;
71769;SDS011;66386;52.122;5.420;2023-03-01T16:28:02;3.45;;;2.40;;
71769;SDS011;66386;52.122;5.420;2023-03-01T16:30:35;3.85;;;2.38;;
71769;SDS011;66386;52.122;5.420;2023-03-01T16:33:03;4.63;;;2.47;;
71769;SDS011;66386;52.122;5.420;2023-03-01T16:35:49;5.18;;;2.90;;
71769;SDS011;66386;52.122;5.420;2023-03-01T16:38:16;7.32;;;3.10;;
71769;SDS011;66386;52.122;5.420;2023-03-01T16:40:46;3.72;;;2.78;;
71769;SDS011;66386;52.122;5.420;2023-03-01T16:43:14;4.60;;;2.90;;
71769;SDS011;66386;52.122;5.420;2023-03-01T16:45:40;5.17;;;2.70;;
71769;SDS011;66386;52.122;5.420;2023-03-01T16:48:10;5.13;;;2.30;;
71769;SDS011;66386;52.122;5.420;2023-03-01T16:50:37;4.35;;;2.40;;
71769;SDS011;66386;52.122;5.420;2023-03-01T16:53:03;4.30;;;2.33;;
71769;SDS011;66386;52.122;5.420;2023-03-01T16:55:31;3.63;;;2.35;;
71769;SDS011;66386;52.122;5.420;2023-03-01T16:57:57;6.30;;;3.10;;
71769;SDS011;66386;52.122;5.420;2023-03-01T17:00:24;6.03;;;2.47;;